sensor_id;sensor_type;location;lat;lon;timestamp;pressure;altitude;pressure_sealevel;temperature;humidity
54389;BME280;40975;50.390;8.640;2023-08-06T00:01:36;98188.53;;;14.65;100.00
54389;BME280;40975;50.390;8.640;2023-08-06T00:04:01;98183.03;;;14.67;100.00
54389;BME280;40975;50.390;8.640;2023-08-06T00:06:26;98178.66;;;14.66;100.00
54389;BME280;40975;50.390;8.640;2023-08-06T00:08:52;98176.00;;;14.66;100.00
54389;BME280;40975;50.390;8.640;2023-08-06T00:11:17;98175.63;;;14.69;100.00
54389;BME280;40975;50.390;8.640;2023-08-06T00:13:42;98170.31;;;14.69;100.00
54389;BME280;40975;50.390;8.640;2023-08-06T00:16:12;98163.31;;;14.68;100.00
54389;BME280;40975;50.390;8.640;2023-08-06T00:18:38;98165.31;;;14.66;100.00
54389;BME280;40975;50.390;8.640;2023-08-06T00:21:04;98173.78;;;14.69;100.00
54389;BME280;40975;50.390;8.640;2023-08-06T00:23:29;98173.19;;;14.67;100.00
54389;BME280;40975;50.390;8.640;2023-08-06T00:25:54;98167.84;;;14.67;100.00
54389;BME280;40975;50.390;8.640;2023-08-06T00:28:20;98167.00;;;14.67;100.00
54389;BME280;40975;50.390;8.640;2023-08-06T00:30:45;98161.44;;;14.68;100.00
54389;BME280;40975;50.390;8.640;2023-08-06T00:33:10;98150.59;;;14.70;100.00
54389;BME280;40975;50.390;8.640;2023-08-06T00:35:37;98155.72;;;14.71;100.00
54389;BME280;40975;50.390;8.640;2023-08-06T00:38:02;98147.72;;;14.71;100.00
54389;BME280;40975;50.390;8.640;2023-08-06T00:40:27;98136.00;;;14.72;100.00
54389;BME280;40975;50.390;8.640;2023-08-06T00:42:54;98135.19;;;14.72;100.00
54389;BME280;40975;50.390;8.640;2023-08-06T00:45:19;98123.69;;;14.71;100.00
54389;BME280;40975;50.390;8.640;2023-08-06T00:47:45;98121.22;;;14.70;100.00
54389;BME280;40975;50.390;8.640;2023-08-06T00:50:11;98124.91;;;14.69;100.00
54389;BME280;40975;50.390;8.640;2023-08-06T00:52:37;98123.81;;;14.63;100.00
54389;BME280;40975;50.390;8.640;2023-08-06T00:55:05;98127.13;;;14.65;100.00
54389;BME280;40975;50.390;8.640;2023-08-06T00:57:30;98127.28;;;14.64;100.00
54389;BME280;40975;50.390;8.640;2023-08-06T00:59:56;98125.47;;;14.64;100.00
54389;BME280;40975;50.390;8.640;2023-08-06T01:02:21;98121.78;;;14.65;100.00
54389;BME280;40975;50.390;8.640;2023-08-06T01:04:47;98117.47;;;14.64;100.00
54389;BME280;40975;50.390;8.640;2023-08-06T01:07:19;98109.22;;;14.66;100.00
54389;BME280;40975;50.390;8.640;2023-08-06T01:09:57;98112.94;;;14.65;100.00
54389;BME280;40975;50.390;8.640;2023-08-06T01:12:48;98112.75;;;14.66;100.00
54389;BME280;40975;50.390;8.640;2023-08-06T01:15:21;98111.09;;;14.65;100.00
54389;BME280;40975;50.390;8.640;2023-08-06T01:17:48;98105.94;;;14.64;100.00
54389;BME280;40975;50.390;8.640;2023-08-06T01:20:13;98117.63;;;14.62;100.00
54389;BME280;40975;50.390;8.640;2023-08-06T01:22:38;98109.22;;;14.66;100.00
54389;BME280;40975;50.390;8.640;2023-08-06T01:25:04;98104.72;;;14.66;100.00
54389;BME280;40975;50.390;8.640;2023-08-06T01:27:44;98098.34;;;14.60;100.00
54389;BME280;40975;50.390;8.640;2023-08-06T01:30:22;98100.59;;;14.64;100.00
54389;BME280;40975;50.390;8.640;2023-08-06T01:32:59;98092.22;;;14.67;100.00
54389;BME280;40975;50.390;8.640;2023-08-06T01:35:29;98087.06;;;14.65;100.00
54389;BME280;40975;50.390;8.640;2023-08-06T01:37:58;98086.22;;;14.65;100.00
54389;BME280;40975;50.390;8.640;2023-08-06T01:40:24;98086.44;;;14.63;100.00
54389;BME280;40975;50.390;8.640;2023-08-06T01:42:52;98083.97;;;14.61;100.00
54389;BME280;40975;50.390;8.640;2023-08-06T01:45:18;98087.41;;;14.55;100.00
54389;BME280;40975;50.390;8.640;2023-08-06T01:47:43;98072.63;;;14.53;100.00
54389;BME280;40975;50.390;8.640;2023-08-06T01:50:09;98073.84;;;14.50;100.00
54389;BME280;40975;50.390;8.640;2023-08-06T01:52:34;98064.78;;;14.44;100.00
54389;BME280;40975;50.390;8.640;2023-08-06T01:54:59;98058.44;;;14.45;100.00
54389;BME280;40975;50.390;8.640;2023-08-06T01:57:25;98052.66;;;14.42;100.00
54389;BME280;40975;50.390;8.640;2023-08-06T01:59:50;98053.03;;;14.39;100.00
54389;BME280;40975;50.390;8.640;2023-08-06T02:02:15;98044.03;;;14.40;100.00
54389;BME280;40975;50.390;8.640;2023-08-06T02:04:41;98050.59;;;14.37;100.00
54389;BME280;40975;50.390;8.640;2023-08-06T02:07:06;98053.03;;;14.39;100.00
54389;BME280;40975;50.390;8.640;2023-08-06T02:09:32;98028.97;;;14.32;100.00
54389;BME280;40975;50.390;8.640;2023-08-06T02:11:57;98041.53;;;14.38;100.00
54389;BME280;40975;50.390;8.640;2023-08-06T02:14:22;98037.25;;;14.37;100.00
54389;BME280;40975;50.390;8.640;2023-08-06T02:16:48;98046.06;;;14.38;100.00
54389;BME280;40975;50.390;8.640;2023-08-06T02:19:14;98038.06;;;14.38;100.00
54389;BME280;40975;50.390;8.640;2023-08-06T02:21:39;98042.38;;;14.39;100.00
54389;BME280;40975;50.390;8.640;2023-08-06T02:24:04;98041.34;;;14.40;100.00
54389;BME280;40975;50.390;8.640;2023-08-06T02:26:30;98031.69;;;14.39;100.00
54389;BME280;40975;50.390;8.640;2023-08-06T02:28:55;98039.69;;;14.39;100.00
54389;BME280;40975;50.390;8.640;2023-08-06T02:31:20;98020.00;;;14.40;100.00
54389;BME280;40975;50.390;8.640;2023-08-06T02:33:46;98011.78;;;14.41;100.00
54389;BME280;40975;50.390;8.640;2023-08-06T02:36:11;98014.44;;;14.41;100.00
54389;BME280;40975;50.390;8.640;2023-08-06T02:38:37;98015.28;;;14.42;100.00
54389;BME280;40975;50.390;8.640;2023-08-06T02:41:03;98016.31;;;14.41;100.00
54389;BME280;40975;50.390;8.640;2023-08-06T02:43:28;98014.06;;;14.44;100.00
54389;BME280;40975;50.390;8.640;2023-08-06T02:45:58;98005.63;;;14.41;100.00
54389;BME280;40975;50.390;8.640;2023-08-06T02:48:23;98003.56;;;14.43;100.00
54389;BME280;40975;50.390;8.640;2023-08-06T02:50:49;98005.03;;;14.45;100.00
54389;BME280;40975;50.390;8.640;2023-08-06T02:53:14;98003.78;;;14.41;100.00
54389;BME280;40975;50.390;8.640;2023-08-06T02:55:45;98010.13;;;14.40;100.00
54389;BME280;40975;50.390;8.640;2023-08-06T02:58:14;98005.59;;;14.34;100.00
54389;BME280;40975;50.390;8.640;2023-08-06T03:00:45;97996.16;;;14.32;100.00
54389;BME280;40975;50.390;8.640;2023-08-06T03:03:12;97996.75;;;14.27;100.00
54389;BME280;40975;50.390;8.640;2023-08-06T03:05:55;97997.56;;;14.27;100.00
54389;BME280;40975;50.390;8.640;2023-08-06T03:08:33;97991.41;;;14.27;100.00
54389;BME280;40975;50.390;8.640;2023-08-06T03:10:58;97983.59;;;14.25;100.00
54389;BME280;40975;50.390;8.640;2023-08-06T03:13:24;97974.75;;;14.25;100.00
54389;BME280;40975;50.390;8.640;2023-08-06T03:15:57;97968.59;;;14.24;100.00
54389;BME280;40975;50.390;8.640;2023-08-06T03:18:23;97958.94;;;14.23;100.00
54389;BME280;40975;50.390;8.640;2023-08-06T03:20:51;97952.78;;;14.23;100.00
54389;BME280;40975;50.390;8.640;2023-08-06T03:23:17;97963.03;;;14.19;100.00
54389;BME280;40975;50.390;8.640;2023-08-06T03:25:43;97970.41;;;14.17;100.00
54389;BME280;40975;50.390;8.640;2023-08-06T03:28:09;97966.47;;;14.13;100.00
54389;BME280;40975;50.390;8.640;2023-08-06T03:30:35;97969.34;;;14.11;100.00
54389;BME280;40975;50.390;8.640;2023-08-06T03:33:01;97961.56;;;14.10;100.00
54389;BME280;40975;50.390;8.640;2023-08-06T03:35:26;97952.13;;;14.07;100.00
54389;BME280;40975;50.390;8.640;2023-08-06T03:37:52;97958.47;;;14.06;100.00
54389;BME280;40975;50.390;8.640;2023-08-06T03:40:17;97952.50;;;14.04;100.00
54389;BME280;40975;50.390;8.640;2023-08-06T03:42:42;97948.81;;;14.05;100.00
54389;BME280;40975;50.390;8.640;2023-08-06T03:45:08;97946.16;;;14.05;100.00
54389;BME280;40975;50.390;8.640;2023-08-06T03:47:34;97942.63;;;14.05;100.00
54389;BME280;40975;50.390;8.640;2023-08-06T03:50:00;97941.63;;;14.06;100.00
54389;BME280;40975;50.390;8.640;2023-08-06T03:52:25;97942.63;;;14.05;100.00
54389;BME280;40975;50.390;8.640;2023-08-06T03:54:50;97943.28;;;14.07;100.00
54389;BME280;40975;50.390;8.640;2023-08-06T03:57:16;97941.44;;;14.07;100.00
54389;BME280;40975;50.390;8.640;2023-08-06T03:59:41;97934.63;;;14.05;100.00
54389;BME280;40975;50.390;8.640;2023-08-06T04:02:07;97933.81;;;14.04;100.00
54389;BME280;40975;50.390;8.640;2023-08-06T04:04:32;97934.63;;;14.05;100.00
54389;BME280;40975;50.390;8.640;2023-08-06T04:06:57;97926.63;;;14.05;100.00
54389;BME280;40975;50.390;8.640;2023-08-06T04:09:22;97930.56;;;14.09;100.00
54389;BME280;40975;50.390;8.640;2023-08-06T04:11:48;97931.78;;;14.13;100.00
54389;BME280;40975;50.390;8.640;2023-08-06T04:14:13;97926.25;;;14.08;100.00
54389;BME280;40975;50.390;8.640;2023-08-06T04:16:38;97923.56;;;14.08;100.00
54389;BME280;40975;50.390;8.640;2023-08-06T04:19:04;97931.38;;;14.09;100.00
54389;BME280;40975;50.390;8.640;2023-08-06T04:21:29;97928.72;;;14.09;100.00
54389;BME280;40975;50.390;8.640;2023-08-06T04:23:56;97916.00;;;14.11;100.00
54389;BME280;40975;50.390;8.640;2023-08-06T04:26:21;97922.56;;;14.09;100.00
54389;BME280;40975;50.390;8.640;2023-08-06T04:28:46;97919.69;;;14.10;100.00
54389;BME280;40975;50.390;8.640;2023-08-06T04:31:12;97931.19;;;14.11;100.00
54389;BME280;40975;50.390;8.640;2023-08-06T04:33:39;97931.78;;;14.13;100.00
54389;BME280;40975;50.390;8.640;2023-08-06T04:36:08;97923.78;;;14.13;100.00
54389;BME280;40975;50.390;8.640;2023-08-06T04:38:34;97933.44;;;14.14;100.00
54389;BME280;40975;50.390;8.640;2023-08-06T04:41:02;97924.03;;;14.18;100.00
54389;BME280;40975;50.390;8.640;2023-08-06T04:43:27;97926.50;;;14.20;100.00
54389;BME280;40975;50.390;8.640;2023-08-06T04:45:54;97921.38;;;14.18;100.00
54389;BME280;40975;50.390;8.640;2023-08-06T04:48:19;97914.63;;;14.22;100.00
54389;BME280;40975;50.390;8.640;2023-08-06T04:50:45;97917.88;;;14.24;100.00
54389;BME280;40975;50.390;8.640;2023-08-06T04:53:11;97917.88;;;14.24;100.00
54389;BME280;40975;50.390;8.640;2023-08-06T04:55:37;97919.34;;;14.27;100.00
54389;BME280;40975;50.390;8.640;2023-08-06T04:58:02;97915.84;;;14.26;100.00
54389;BME280;40975;50.390;8.640;2023-08-06T05:00:28;97922.25;;;14.32;100.00
54389;BME280;40975;50.390;8.640;2023-08-06T05:02:53;97919.78;;;14.30;100.00
54389;BME280;40975;50.390;8.640;2023-08-06T05:05:18;97918.97;;;14.37;100.00
54389;BME280;40975;50.390;8.640;2023-08-06T05:07:49;97918.56;;;14.40;100.00
54389;BME280;40975;50.390;8.640;2023-08-06T05:10:15;97927.81;;;14.44;100.00
54389;BME280;40975;50.390;8.640;2023-08-06T05:12:40;97924.16;;;14.52;100.00
54389;BME280;40975;50.390;8.640;2023-08-06T05:15:06;97923.56;;;14.63;100.00
54389;BME280;40975;50.390;8.640;2023-08-06T05:17:32;97923.41;;;14.71;100.00
54389;BME280;40975;50.390;8.640;2023-08-06T05:19:57;97921.78;;;14.84;100.00
54389;BME280;40975;50.390;8.640;2023-08-06T05:22:22;97922.00;;;14.96;100.00
54389;BME280;40975;50.390;8.640;2023-08-06T05:24:48;97927.97;;;15.04;100.00
54389;BME280;40975;50.390;8.640;2023-08-06T05:27:13;97924.69;;;15.09;100.00
54389;BME280;40975;50.390;8.640;2023-08-06T05:29:38;97931.66;;;15.10;100.00
54389;BME280;40975;50.390;8.640;2023-08-06T05:32:04;97929.63;;;15.05;100.00
54389;BME280;40975;50.390;8.640;2023-08-06T05:34:29;97927.56;;;15.01;100.00
54389;BME280;40975;50.390;8.640;2023-08-06T05:36:54;97924.66;;;14.96;100.00
54389;BME280;40975;50.390;8.640;2023-08-06T05:39:20;97929.19;;;14.88;100.00
54389;BME280;40975;50.390;8.640;2023-08-06T05:41:45;97935.75;;;14.79;100.00
54389;BME280;40975;50.390;8.640;2023-08-06T05:44:10;97934.91;;;14.72;100.00
54389;BME280;40975;50.390;8.640;2023-08-06T05:46:36;97929.97;;;14.69;100.00
54389;BME280;40975;50.390;8.640;2023-08-06T05:49:01;97933.44;;;14.69;100.00
54389;BME280;40975;50.390;8.640;2023-08-06T05:51:27;97933.22;;;14.64;100.00
54389;BME280;40975;50.390;8.640;2023-08-06T05:53:52;97928.09;;;14.69;100.00
54389;BME280;40975;50.390;8.640;2023-08-06T05:56:17;97930.78;;;14.69;100.00
54389;BME280;40975;50.390;8.640;2023-08-06T05:58:43;97924.44;;;14.77;100.00
54389;BME280;40975;50.390;8.640;2023-08-06T06:01:08;97937.59;;;14.92;100.00
54389;BME280;40975;50.390;8.640;2023-08-06T06:03:33;97921.59;;;14.99;100.00
54389;BME280;40975;50.390;8.640;2023-08-06T06:06:01;97926.72;;;15.00;100.00
54389;BME280;40975;50.390;8.640;2023-08-06T06:08:26;97929.00;;;15.10;100.00
54389;BME280;40975;50.390;8.640;2023-08-06T06:10:51;97926.53;;;15.22;100.00
54389;BME280;40975;50.390;8.640;2023-08-06T06:13:17;97929.19;;;15.35;100.00
54389;BME280;40975;50.390;8.640;2023-08-06T06:15:42;97933.47;;;15.63;100.00
54389;BME280;40975;50.390;8.640;2023-08-06T06:18:07;97937.97;;;15.83;100.00
54389;BME280;40975;50.390;8.640;2023-08-06T06:20:33;97933.25;;;15.92;100.00
54389;BME280;40975;50.390;8.640;2023-08-06T06:22:59;97931.78;;;15.96;100.00
54389;BME280;40975;50.390;8.640;2023-08-06T06:25:24;97936.34;;;15.89;100.00
54389;BME280;40975;50.390;8.640;2023-08-06T06:27:49;97945.13;;;16.09;100.00
54389;BME280;40975;50.390;8.640;2023-08-06T06:30:15;97942.63;;;16.21;100.00
54389;BME280;40975;50.390;8.640;2023-08-06T06:32:40;97935.44;;;16.15;100.00
54389;BME280;40975;50.390;8.640;2023-08-06T06:35:06;97937.53;;;16.06;100.00
54389;BME280;40975;50.390;8.640;2023-08-06T06:37:31;97942.72;;;15.88;100.00
54389;BME280;40975;50.390;8.640;2023-08-06T06:39:57;97941.69;;;15.89;100.00
54389;BME280;40975;50.390;8.640;2023-08-06T06:42:22;97944.56;;;15.80;100.00
54389;BME280;40975;50.390;8.640;2023-08-06T06:44:51;97937.81;;;15.64;100.00
54389;BME280;40975;50.390;8.640;2023-08-06T06:47:16;97939.47;;;15.59;100.00
54389;BME280;40975;50.390;8.640;2023-08-06T06:49:41;97940.09;;;15.61;100.00
54389;BME280;40975;50.390;8.640;2023-08-06T06:52:07;97947.06;;;15.48;100.00
54389;BME280;40975;50.390;8.640;2023-08-06T06:54:32;97938.22;;;15.14;100.00
54389;BME280;40975;50.390;8.640;2023-08-06T06:56:58;97935.38;;;15.09;100.00
54389;BME280;40975;50.390;8.640;2023-08-06T06:59:23;97930.66;;;15.11;100.00
54389;BME280;40975;50.390;8.640;2023-08-06T07:01:48;97934.34;;;15.17;100.00
54389;BME280;40975;50.390;8.640;2023-08-06T07:04:14;97927.75;;;15.06;100.00
54389;BME280;40975;50.390;8.640;2023-08-06T07:06:39;97933.50;;;15.16;100.00
54389;BME280;40975;50.390;8.640;2023-08-06T07:09:04;97928.97;;;15.30;100.00
54389;BME280;40975;50.390;8.640;2023-08-06T07:11:31;97935.97;;;15.31;100.00
54389;BME280;40975;50.390;8.640;2023-08-06T07:13:57;97934.75;;;15.47;100.00
54389;BME280;40975;50.390;8.640;2023-08-06T07:16:23;97933.88;;;15.60;100.00
54389;BME280;40975;50.390;8.640;2023-08-06T07:18:48;97936.78;;;15.65;100.00
54389;BME280;40975;50.390;8.640;2023-08-06T07:21:14;97939.44;;;15.72;100.00
54389;BME280;40975;50.390;8.640;2023-08-06T07:23:39;97933.88;;;15.80;100.00
54389;BME280;40975;50.390;8.640;2023-08-06T07:26:04;97930.16;;;15.88;100.00
54389;BME280;40975;50.390;8.640;2023-08-06T07:28:30;97929.75;;;15.91;100.00
54389;BME280;40975;50.390;8.640;2023-08-06T07:30:55;97932.84;;;15.88;100.00
54389;BME280;40975;50.390;8.640;2023-08-06T07:33:20;97931.78;;;15.82;100.00
54389;BME280;40975;50.390;8.640;2023-08-06T07:35:46;97936.16;;;15.50;100.00
54389;BME280;40975;50.390;8.640;2023-08-06T07:38:11;97932.50;;;15.31;100.00
54389;BME280;40975;50.390;8.640;2023-08-06T07:40:36;97930.03;;;15.16;100.00
54389;BME280;40975;50.390;8.640;2023-08-06T07:43:02;97928.16;;;15.03;100.00
54389;BME280;40975;50.390;8.640;2023-08-06T07:45:32;97929.41;;;14.87;100.00
54389;BME280;40975;50.390;8.640;2023-08-06T07:47:57;97934.91;;;14.85;100.00
54389;BME280;40975;50.390;8.640;2023-08-06T07:50:23;97930.63;;;14.91;100.00
54389;BME280;40975;50.390;8.640;2023-08-06T07:52:48;97925.47;;;14.83;100.00
54389;BME280;40975;50.390;8.640;2023-08-06T07:55:13;97926.50;;;14.82;100.00
54389;BME280;40975;50.390;8.640;2023-08-06T07:57:39;97931.22;;;14.86;100.00
54389;BME280;40975;50.390;8.640;2023-08-06T08:00:06;97927.53;;;14.87;100.00
54389;BME280;40975;50.390;8.640;2023-08-06T08:02:38;97927.53;;;14.87;100.00
54389;BME280;40975;50.390;8.640;2023-08-06T08:05:03;97923.25;;;15.06;100.00
54389;BME280;40975;50.390;8.640;2023-08-06T08:07:28;97924.47;;;15.11;100.00
54389;BME280;40975;50.390;8.640;2023-08-06T08:09:56;97927.34;;;15.22;100.00
54389;BME280;40975;50.390;8.640;2023-08-06T08:12:22;97931.44;;;15.38;100.00
54389;BME280;40975;50.390;8.640;2023-08-06T08:14:47;97926.75;;;15.27;100.00
54389;BME280;40975;50.390;8.640;2023-08-06T08:17:12;97925.69;;;15.42;100.00
54389;BME280;40975;50.390;8.640;2023-08-06T08:19:38;97924.84;;;15.48;100.00
54389;BME280;40975;50.390;8.640;2023-08-06T08:22:03;97925.06;;;15.66;100.00
54389;BME280;40975;50.390;8.640;2023-08-06T08:24:29;97929.75;;;15.84;100.00
54389;BME280;40975;50.390;8.640;2023-08-06T08:26:56;97920.44;;;16.07;100.00
54389;BME280;40975;50.390;8.640;2023-08-06T08:29:22;97925.59;;;16.02;100.00
54389;BME280;40975;50.390;8.640;2023-08-06T08:31:47;97930.75;;;15.97;100.00
54389;BME280;40975;50.390;8.640;2023-08-06T08:34:16;97926.66;;;15.88;100.00
54389;BME280;40975;50.390;8.640;2023-08-06T08:36:41;97926.91;;;15.86;100.00
54389;BME280;40975;50.390;8.640;2023-08-06T08:39:07;97928.94;;;15.91;100.00
54389;BME280;40975;50.390;8.640;2023-08-06T08:41:33;97927.59;;;16.13;100.00
54389;BME280;40975;50.390;8.640;2023-08-06T08:43:59;97926.41;;;16.48;100.00
54389;BME280;40975;50.390;8.640;2023-08-06T08:46:32;97915.03;;;16.91;100.00
54389;BME280;40975;50.390;8.640;2023-08-06T08:48:59;97919.22;;;17.38;100.00
54389;BME280;40975;50.390;8.640;2023-08-06T08:51:27;97922.22;;;18.90;100.00
54389;BME280;40975;50.390;8.640;2023-08-06T08:53:53;97915.63;;;19.52;100.00
54389;BME280;40975;50.390;8.640;2023-08-06T08:56:21;97926.97;;;23.07;89.44
54389;BME280;40975;50.390;8.640;2023-08-06T08:58:47;97923.31;;;23.99;78.62
54389;BME280;40975;50.390;8.640;2023-08-06T09:01:14;97932.56;;;24.88;74.74
54389;BME280;40975;50.390;8.640;2023-08-06T09:03:40;97932.31;;;25.61;67.66
54389;BME280;40975;50.390;8.640;2023-08-06T09:06:06;97935.31;;;25.55;70.00
54389;BME280;40975;50.390;8.640;2023-08-06T09:08:37;97937.38;;;24.65;67.40
54389;BME280;40975;50.390;8.640;2023-08-06T09:11:04;97929.59;;;25.56;65.13
54389;BME280;40975;50.390;8.640;2023-08-06T09:13:30;97939.66;;;26.47;63.35
54389;BME280;40975;50.390;8.640;2023-08-06T09:15:55;97941.19;;;27.78;56.92
54389;BME280;40975;50.390;8.640;2023-08-06T09:18:27;97947.28;;;27.94;57.17
54389;BME280;40975;50.390;8.640;2023-08-06T09:20:56;97938.94;;;27.56;56.95
54389;BME280;40975;50.390;8.640;2023-08-06T09:23:28;97933.00;;;26.08;57.70
54389;BME280;40975;50.390;8.640;2023-08-06T09:25:54;97931.78;;;26.96;56.67
54389;BME280;40975;50.390;8.640;2023-08-06T09:28:20;97946.31;;;27.85;55.11
54389;BME280;40975;50.390;8.640;2023-08-06T09:30:47;97946.28;;;28.58;52.89
54389;BME280;40975;50.390;8.640;2023-08-06T09:33:17;97945.47;;;28.95;50.83
54389;BME280;40975;50.390;8.640;2023-08-06T09:35:43;97930.59;;;26.62;55.71
54389;BME280;40975;50.390;8.640;2023-08-06T09:38:09;97938.25;;;24.86;60.06
54389;BME280;40975;50.390;8.640;2023-08-06T09:40:36;97930.81;;;23.44;65.24
54389;BME280;40975;50.390;8.640;2023-08-06T09:43:02;97930.50;;;22.53;70.18
54389;BME280;40975;50.390;8.640;2023-08-06T09:45:30;97926.09;;;21.29;79.52
54389;BME280;40975;50.390;8.640;2023-08-06T09:47:58;97925.28;;;20.94;82.45
54389;BME280;40975;50.390;8.640;2023-08-06T09:50:28;97935.22;;;20.36;84.21
54389;BME280;40975;50.390;8.640;2023-08-06T09:52:54;97923.84;;;20.34;81.75
54389;BME280;40975;50.390;8.640;2023-08-06T09:55:20;97925.03;;;20.67;83.65
54389;BME280;40975;50.390;8.640;2023-08-06T09:57:47;97928.03;;;21.00;82.13
54389;BME280;40975;50.390;8.640;2023-08-06T10:00:12;97930.47;;;22.75;77.38
54389;BME280;40975;50.390;8.640;2023-08-06T10:02:39;97927.13;;;24.93;63.60
54389;BME280;40975;50.390;8.640;2023-08-06T10:05:05;97926.31;;;24.87;61.20
54389;BME280;40975;50.390;8.640;2023-08-06T10:07:31;97928.09;;;24.40;62.42
54389;BME280;40975;50.390;8.640;2023-08-06T10:09:56;97912.34;;;23.36;63.76
54389;BME280;40975;50.390;8.640;2023-08-06T10:12:23;97922.59;;;23.76;68.39
54389;BME280;40975;50.390;8.640;2023-08-06T10:14:51;97913.78;;;23.16;67.33
54389;BME280;40975;50.390;8.640;2023-08-06T10:17:20;97907.69;;;22.44;69.12
54389;BME280;40975;50.390;8.640;2023-08-06T10:19:47;97902.28;;;22.71;67.64
54389;BME280;40975;50.390;8.640;2023-08-06T10:22:17;97912.13;;;22.55;71.91
54389;BME280;40975;50.390;8.640;2023-08-06T10:27:19;97902.88;;;23.38;67.84
54389;BME280;40975;50.390;8.640;2023-08-06T10:29:44;97914.59;;;25.85;61.78
54389;BME280;40975;50.390;8.640;2023-08-06T10:32:10;97907.66;;;27.19;56.50
54389;BME280;40975;50.390;8.640;2023-08-06T10:34:54;97901.69;;;28.00;54.20
54389;BME280;40975;50.390;8.640;2023-08-06T10:37:23;97913.16;;;28.83;56.47
54389;BME280;40975;50.390;8.640;2023-08-06T10:39:51;97899.97;;;28.09;53.45
54389;BME280;40975;50.390;8.640;2023-08-06T10:42:21;97891.28;;;26.44;54.81
54389;BME280;40975;50.390;8.640;2023-08-06T10:45:15;97889.31;;;27.29;52.04
54389;BME280;40975;50.390;8.640;2023-08-06T10:47:42;97901.09;;;28.27;53.36
54389;BME280;40975;50.390;8.640;2023-08-06T10:50:11;97902.09;;;28.55;52.41
54389;BME280;40975;50.390;8.640;2023-08-06T10:52:37;97902.84;;;28.80;51.56
54389;BME280;40975;50.390;8.640;2023-08-06T10:55:03;97897.28;;;29.05;50.60
54389;BME280;40975;50.390;8.640;2023-08-06T10:57:28;97910.88;;;29.24;53.85
54389;BME280;40975;50.390;8.640;2023-08-06T10:59:53;97898.19;;;28.81;46.89
54389;BME280;40975;50.390;8.640;2023-08-06T11:02:19;97903.19;;;27.33;54.47
54389;BME280;40975;50.390;8.640;2023-08-06T11:04:44;97893.44;;;25.61;54.25
54389;BME280;40975;50.390;8.640;2023-08-06T11:07:09;97902.47;;;24.05;59.41
54389;BME280;40975;50.390;8.640;2023-08-06T11:09:35;97892.91;;;23.11;64.15
54389;BME280;40975;50.390;8.640;2023-08-06T11:12:00;97899.09;;;22.47;67.53
54389;BME280;40975;50.390;8.640;2023-08-06T11:14:25;97890.22;;;22.29;73.79
54389;BME280;40975;50.390;8.640;2023-08-06T11:16:51;97894.06;;;22.11;72.86
54389;BME280;40975;50.390;8.640;2023-08-06T11:19:16;97897.75;;;21.83;69.76
54389;BME280;40975;50.390;8.640;2023-08-06T11:21:43;97898.78;;;21.42;70.95
54389;BME280;40975;50.390;8.640;2023-08-06T11:24:12;97908.28;;;21.28;78.81
54389;BME280;40975;50.390;8.640;2023-08-06T11:26:37;97897.75;;;21.09;74.51
54389;BME280;40975;50.390;8.640;2023-08-06T11:29:05;97889.63;;;20.92;75.24
54389;BME280;40975;50.390;8.640;2023-08-06T11:31:30;97897.97;;;20.91;80.03
54389;BME280;40975;50.390;8.640;2023-08-06T11:33:55;97901.88;;;20.83;77.04
54389;BME280;40975;50.390;8.640;2023-08-06T11:36:30;97908.66;;;20.57;77.54
54389;BME280;40975;50.390;8.640;2023-08-06T11:38:57;97901.06;;;20.54;79.13
54389;BME280;40975;50.390;8.640;2023-08-06T11:41:23;97901.34;;;20.69;80.38
54389;BME280;40975;50.390;8.640;2023-08-06T11:43:48;97905.66;;;21.33;80.81
54389;BME280;40975;50.390;8.640;2023-08-06T11:46:14;97895.00;;;21.78;73.13
54389;BME280;40975;50.390;8.640;2023-08-06T11:51:17;97918.09;;;21.34;78.56
54389;BME280;40975;50.390;8.640;2023-08-06T11:53:48;97914.47;;;19.84;80.23
54389;BME280;40975;50.390;8.640;2023-08-06T11:56:14;97924.06;;;18.90;92.47
54389;BME280;40975;50.390;8.640;2023-08-06T11:58:43;97936.81;;;18.33;100.00
54389;BME280;40975;50.390;8.640;2023-08-06T12:01:08;97931.75;;;17.69;100.00
54389;BME280;40975;50.390;8.640;2023-08-06T12:03:39;97937.13;;;16.93;100.00
54389;BME280;40975;50.390;8.640;2023-08-06T12:06:04;97931.38;;;16.83;100.00
54389;BME280;40975;50.390;8.640;2023-08-06T12:08:30;97940.91;;;16.40;100.00
54389;BME280;40975;50.390;8.640;2023-08-06T12:10:55;97944.66;;;16.26;100.00
54389;BME280;40975;50.390;8.640;2023-08-06T12:13:20;97942.66;;;16.08;100.00
54389;BME280;40975;50.390;8.640;2023-08-06T12:15:46;97941.06;;;15.80;100.00
54389;BME280;40975;50.390;8.640;2023-08-06T12:18:11;97943.97;;;15.65;100.00
54389;BME280;40975;50.390;8.640;2023-08-06T12:20:37;97946.06;;;15.49;100.00
54389;BME280;40975;50.390;8.640;2023-08-06T12:23:03;97947.28;;;15.20;100.00
54389;BME280;40975;50.390;8.640;2023-08-06T12:25:29;97950.75;;;14.80;100.00
54389;BME280;40975;50.390;8.640;2023-08-06T12:27:54;97966.97;;;14.85;100.00
54389;BME280;40975;50.390;8.640;2023-08-06T12:30:19;97962.44;;;14.79;100.00
54389;BME280;40975;50.390;8.640;2023-08-06T12:32:45;97961.56;;;14.65;100.00
54389;BME280;40975;50.390;8.640;2023-08-06T12:35:10;97974.50;;;14.61;100.00
54389;BME280;40975;50.390;8.640;2023-08-06T12:37:35;97977.41;;;14.67;100.00
54389;BME280;40975;50.390;8.640;2023-08-06T12:40:02;97980.63;;;14.55;100.00
54389;BME280;40975;50.390;8.640;2023-08-06T12:42:27;97978.09;;;14.40;100.00
54389;BME280;40975;50.390;8.640;2023-08-06T12:44:53;97980.56;;;14.35;100.00
54389;BME280;40975;50.390;8.640;2023-08-06T12:47:18;97980.56;;;14.35;100.00
54389;BME280;40975;50.390;8.640;2023-08-06T12:49:43;97985.03;;;14.28;100.00
54389;BME280;40975;50.390;8.640;2023-08-06T12:52:09;97990.19;;;14.29;100.00
54389;BME280;40975;50.390;8.640;2023-08-06T12:54:34;97985.44;;;14.25;100.00